Time;durP1;ratioP1;P1;durP2;ratioP2;P2;SDS_P1;SDS_P2;PMS_P1;PMS_P2;Temp;Humidity;BMP_temperature;BMP_pressure;BME280_temperature;BME280_humidity;BME280_pressure;Samples;Min_cycle;Max_cycle;Signal;HPM_P1;HPM_P2
2021/12/07 00:14:26;;;;;;;;;;;1.90;99.90;;;;;;5045787;23;19957;-83
2021/12/07 00:16:53;;;;;;;;;;;1.90;99.90;;;;;;4998500;28;20385;-82
2021/12/07 00:19:18;;;;;;;;;;;1.90;99.90;;;;;;4994845;28;19972;-82
2021/12/07 00:21:44;;;;;;;;;;;1.80;99.90;;;;;;4993362;28;20341;-82
2021/12/07 00:31:54;;;;;;;;;;;1.80;99.90;;;;;;5782240;23;19925;-83
2021/12/07 00:34:41;;;;;;;;;;;1.80;99.90;;;;;;4986898;28;19979;-83
2021/12/07 00:37:07;;;;;;;;;;;3.00;99.90;;;;;;4991696;28;19932;-84
2021/12/07 00:39:32;;;;;;;;;;;1.70;99.90;;;;;;4991902;28;19925;-83
2021/12/07 00:41:58;;;;;;;;;;;1.70;99.90;;;;;;4990491;28;19926;-83
2021/12/07 00:44:24;;;;;;;;;;;1.70;99.90;;;;;;4989824;28;19931;-82
2021/12/07 00:46:51;;;;;;;;;;;1.70;99.90;;;;;;4990150;28;19933;-83
2021/12/07 00:49:16;;;;;;;;;;;1.70;99.90;;;;;;4989416;28;20602;-82
2021/12/07 00:51:42;;;;;;;;;;;1.60;99.90;;;;;;4992421;28;19954;-83
2021/12/07 00:54:09;;;;;;;;;;;1.60;99.90;;;;;;4990981;28;19933;-83
2021/12/07 00:56:35;;;;;;;;;;;2.70;99.90;;;;;;4991526;28;19948;-83
2021/12/07 00:59:04;;;;;;;;;;;1.60;99.90;;;;;;4990910;28;19925;-83
2021/12/07 01:01:30;;;;;;;;;;;1.60;99.90;;;;;;5068416;23;19933;-81
2021/12/07 01:03:55;;;;;;;;;;;1.50;99.90;;;;;;4978912;28;20377;-83
2021/12/07 01:08:57;;;;;;;;;;;1.50;99.90;;;;;;4968130;28;19938;-82
2021/12/07 01:25:07;;;;;;;;;;;1.10;99.90;;;;;;4972510;28;20425;-84
2021/12/07 01:27:32;;;;;;;;;;;1.00;99.90;;;;;;4982871;28;19933;-83
2021/12/07 01:30:42;;;;;;;;;;;0.90;99.90;;;;;;4980745;28;19922;-83
2021/12/07 01:33:04;;;;;;;;;;;0.90;99.90;;;;;;4964645;28;19973;-86
2021/12/07 01:35:53;;;;;;;;;;;0.80;99.90;;;;;;4981606;28;19933;-86
2021/12/07 01:41:04;;;;;;;;;;;0.70;99.90;;;;;;4977627;28;20008;-84
2021/12/07 01:51:51;;;;;;;;;;;0.60;99.90;;;;;;4994600;28;20281;-86
2021/12/07 01:59:47;;;;;;;;;;;0.60;99.90;;;;;;4974994;28;19925;-85
2021/12/07 02:02:15;;;;;;;;;;;0.50;99.90;;;;;;4976027;28;19989;-85
2021/12/07 02:04:41;;;;;;;;;;;0.50;99.90;;;;;;4991275;28;19926;-85
2021/12/07 02:07:07;;;;;;;;;;;0.50;99.90;;;;;;4991624;28;19937;-85
2021/12/07 02:09:36;;;;;;;;;;;0.50;99.90;;;;;;4988274;28;19932;-85
2021/12/07 02:12:06;;;;;;;;;;;0.50;99.90;;;;;;4979380;28;19980;-85
2021/12/07 02:14:32;;;;;;;;;;;0.50;99.90;;;;;;4979372;28;19925;-86
2021/12/07 02:16:59;;;;;;;;;;;0.50;99.90;;;;;;4972227;28;20024;-86
2021/12/07 02:40:08;;;;;;;;;;;0.60;99.90;;;;;;5133446;23;19965;-85
2021/12/07 02:42:34;;;;;;;;;;;0.60;99.90;;;;;;4952075;28;20001;-82
2021/12/07 02:44:59;;;;;;;;;;;0.70;99.90;;;;;;4967512;28;19949;-82
2021/12/07 02:47:26;;;;;;;;;;;0.70;99.90;;;;;;4964607;28;20265;-85
2021/12/07 02:49:51;;;;;;;;;;;0.70;99.90;;;;;;4952518;28;19933;-86
2021/12/07 02:52:17;;;;;;;;;;;0.70;99.90;;;;;;4959872;28;19929;-82
2021/12/07 02:54:45;;;;;;;;;;;0.80;99.90;;;;;;4960939;28;19993;-83
2021/12/07 02:57:11;;;;;;;;;;;0.80;99.90;;;;;;4966706;28;19941;-81
2021/12/07 02:59:41;;;;;;;;;;;0.80;99.90;;;;;;4972385;28;19934;-82
2021/12/07 03:02:09;;;;;;;;;;;0.80;99.90;;;;;;4959693;28;19926;-83
2021/12/07 03:04:41;;;;;;;;;;;0.80;99.90;;;;;;4965507;28;19930;-84
2021/12/07 03:07:26;;;;;;;;;;;0.90;99.90;;;;;;4966440;28;20029;-82
2021/12/07 03:25:49;;;;;;;;;;;1.50;99.90;;;;;;4965102;28;19930;-84
2021/12/07 03:26:25;;;;;;;;;;;1.00;99.90;;;;;;4957328;28;19942;-82
2021/12/07 03:28:52;;;;;;;;;;;1.00;99.90;;;;;;4968294;28;19921;-85
2021/12/07 03:31:18;;;;;;;;;;;1.00;99.90;;;;;;4974810;28;19976;-84
2021/12/07 03:33:44;;;;;;;;;;;1.00;99.90;;;;;;4976741;28;19937;-83
2021/12/07 03:36:11;;;;;;;;;;;1.00;99.90;;;;;;4960864;28;19940;-83
2021/12/07 03:38:38;;;;;;;;;;;1.00;99.90;;;;;;4960932;28;20026;-83
2021/12/07 03:41:04;;;;;;;;;;;2.00;99.90;;;;;;4957190;28;19933;-82
2021/12/07 03:43:30;;;;;;;;;;;1.00;99.90;;;;;;4968626;28;19932;-83
2021/12/07 03:45:55;;;;;;;;;;;1.00;99.90;;;;;;4956277;28;20309;-83
2021/12/07 03:48:21;;;;;;;;;;;1.00;99.90;;;;;;4961905;28;20496;-79
2021/12/07 03:50:46;;;;;;;;;;;1.00;99.90;;;;;;4970717;28;20639;-82
2021/12/07 03:53:12;;;;;;;;;;;1.10;99.90;;;;;;4961294;28;19926;-82
2021/12/07 03:55:39;;;;;;;;;;;1.00;99.90;;;;;;4959538;28;19988;-82
2021/12/07 03:58:05;;;;;;;;;;;1.00;99.90;;;;;;4980074;28;19949;-83
2021/12/07 04:01:11;;;;;;;;;;;1.00;99.90;;;;;;4987574;28;19983;-82
2021/12/07 04:04:02;;;;;;;;;;;1.00;99.90;;;;;;4972636;28;19920;-82
2021/12/07 04:06:28;;;;;;;;;;;1.00;99.90;;;;;;4965901;28;20372;-82
2021/12/07 04:08:57;;;;;;;;;;;1.10;99.90;;;;;;4958023;28;19948;-83
2021/12/07 04:11:28;;;;;;;;;;;-0.30;99.90;;;;;;4973640;28;19925;-83
2021/12/07 04:13:54;;;;;;;;;;;1.10;99.90;;;;;;4966437;28;20001;-82
2021/12/07 04:16:45;;;;;;;;;;;;;;;;;;;;;
2021/12/07 04:19:33;;;;;;;;;;;1.90;99.90;;;;;;4968546;28;19933;-82
2021/12/07 04:21:58;;;;;;;;;;;1.00;99.90;;;;;;4983561;28;19934;-82
2021/12/07 04:24:39;;;;;;;;;;;0.90;99.90;;;;;;4957110;28;19925;-83
2021/12/07 04:27:23;;;;;;;;;;;2.30;99.90;;;;;;4960649;28;19930;-82
2021/12/07 04:30:09;;;;;;;;;;;0.30;99.90;;;;;;4955602;28;20270;-83
2021/12/07 04:32:38;;;;;;;;;;;2.20;99.90;;;;;;4969483;28;19945;-81
2021/12/07 04:35:13;;;;;;;;;;;1.00;99.90;;;;;;4959998;28;19926;-81
2021/12/07 04:37:39;;;;;;;;;;;1.20;99.90;;;;;;4970379;28;19925;-81
2021/12/07 04:40:06;;;;;;;;;;;0.80;99.90;;;;;;4964012;28;19978;-82
2021/12/07 04:42:32;;;;;;;;;;;1.00;99.90;;;;;;4960455;28;19969;-82
2021/12/07 04:45:01;;;;;;;;;;;0.90;99.90;;;;;;4968771;28;19979;-82
2021/12/07 04:47:42;;;;;;;;;;;0.90;99.90;;;;;;4996187;28;20013;-82
2021/12/07 04:58:20;;;;;;;;;;;0.90;99.90;;;;;;4961220;28;19927;-83
2021/12/07 05:00:46;;;;;;;;;;;0.80;99.90;;;;;;4964495;28;20373;-82
2021/12/07 05:03:14;;;;;;;;;;;0.80;99.90;;;;;;4958511;28;20405;-82
2021/12/07 05:05:46;;;;;;;;;;;0.80;99.90;;;;;;4964109;28;20015;-82
2021/12/07 05:08:15;;;;;;;;;;;0.80;99.90;;;;;;4964657;28;19930;-82
2021/12/07 05:40:02;;;;;;;;;;;0.90;99.90;;;;;;4955984;28;19969;-82
2021/12/07 05:42:27;;;;;;;;;;;0.90;99.90;;;;;;4956641;28;19931;-82
2021/12/07 05:44:54;;;;;;;;;;;1.00;99.90;;;;;;4961975;28;19926;-81
2021/12/07 05:47:21;;;;;;;;;;;1.00;99.90;;;;;;4972144;28;19953;-81
2021/12/07 05:49:46;;;;;;;;;;;1.00;99.90;;;;;;4987538;28;20429;-81
2021/12/07 05:52:12;;;;;;;;;;;1.00;99.90;;;;;;4969384;28;19952;-81
2021/12/07 05:54:37;;;;;;;;;;;1.10;99.90;;;;;;4963593;28;19926;-82
2021/12/07 05:57:04;;;;;;;;;;;1.10;99.90;;;;;;4958985;28;19926;-81
2021/12/07 05:59:29;;;;;;;;;;;1.10;99.90;;;;;;4956223;28;20326;-79
2021/12/07 06:01:55;;;;;;;;;;;1.10;99.90;;;;;;4970875;28;19926;-79
2021/12/07 06:04:20;;;;;;;;;;;1.10;99.90;;;;;;4970934;28;20413;-82
2021/12/07 06:06:46;;;;;;;;;;;1.10;99.90;;;;;;4965882;28;19926;-82
2021/12/07 06:09:11;;;;;;;;;;;1.10;99.90;;;;;;4952399;28;20329;-82
2021/12/07 06:11:37;;;;;;;;;;;1.10;99.90;;;;;;4960550;28;19926;-82
2021/12/07 06:14:02;;;;;;;;;;;1.10;99.90;;;;;;4959718;28;20408;-82
2021/12/07 06:16:32;;;;;;;;;;;1.20;99.90;;;;;;4957427;28;19934;-82
2021/12/07 06:18:58;;;;;;;;;;;1.20;99.90;;;;;;4969006;28;19926;-82
2021/12/07 06:21:25;;;;;;;;;;;1.20;99.90;;;;;;4977679;28;20408;-82
2021/12/07 06:23:52;;;;;;;;;;;1.30;99.90;;;;;;4965593;28;19933;-82
2021/12/07 06:26:17;;;;;;;;;;;1.30;99.90;;;;;;4983397;28;20004;-82
2021/12/07 06:28:43;;;;;;;;;;;1.40;99.90;;;;;;4964831;28;20009;-81
2021/12/07 06:31:08;;;;;;;;;;;1.40;99.90;;;;;;4969133;28;19937;-83
2021/12/07 06:33:34;;;;;;;;;;;1.40;99.90;;;;;;4977890;28;19930;-82
2021/12/07 06:36:01;;;;;;;;;;;1.50;99.90;;;;;;4964093;28;19926;-82
2021/12/07 06:38:28;;;;;;;;;;;1.50;99.90;;;;;;4962410;28;20370;-82
2021/12/07 06:40:53;;;;;;;;;;;1.40;99.90;;;;;;4971401;28;19926;-83
2021/12/07 06:43:21;;;;;;;;;;;2.40;99.90;;;;;;4961704;28;20014;-83
2021/12/07 06:45:46;;;;;;;;;;;2.30;99.90;;;;;;4972464;28;19933;-81
2021/12/07 06:48:12;;;;;;;;;;;1.50;99.90;;;;;;4975434;28;19933;-81
2021/12/07 06:50:37;;;;;;;;;;;1.50;99.90;;;;;;4973339;28;20044;-83
2021/12/07 06:53:03;;;;;;;;;;;1.50;99.90;;;;;;4981648;28;20334;-82
2021/12/07 06:55:29;;;;;;;;;;;1.50;99.90;;;;;;4963622;28;20400;-83
2021/12/07 07:04:42;;;;;;;;;;;1.50;99.90;;;;;;5127772;23;20016;-80
2021/12/07 07:07:11;;;;;;;;;;;1.50;99.90;;;;;;5001392;28;19929;-80
2021/12/07 07:09:37;;;;;;;;;;;1.60;99.90;;;;;;4982450;28;19933;-80
2021/12/07 07:12:02;;;;;;;;;;;1.60;99.90;;;;;;4987150;28;20008;-79
2021/12/07 07:22:17;;;;;;;;;;;1.60;99.90;;;;;;6055451;23;20054;-80
2021/12/07 07:24:43;;;;;;;;;;;2.10;99.90;;;;;;4992904;28;19929;-80
2021/12/07 07:27:08;;;;;;;;;;;1.70;99.90;;;;;;4987805;28;19978;-80
2021/12/07 07:29:34;;;;;;;;;;;1.70;99.90;;;;;;4990440;28;19933;-81
2021/12/07 07:31:59;;;;;;;;;;;1.70;99.90;;;;;;4992438;28;19925;-81
2021/12/07 07:34:25;;;;;;;;;;;1.80;99.90;;;;;;4992447;28;19936;-81
2021/12/07 07:36:50;;;;;;;;;;;1.80;99.90;;;;;;4991057;28;19925;-81
2021/12/07 07:39:16;;;;;;;;;;;1.80;99.90;;;;;;4991453;28;19956;-81
2021/12/07 07:41:41;;;;;;;;;;;1.80;99.90;;;;;;4999630;28;19913;-80
2021/12/07 07:44:07;;;;;;;;;;;1.80;99.90;;;;;;5009885;28;19929;-81
2021/12/07 07:46:32;;;;;;;;;;;1.80;99.90;;;;;;4998953;28;19925;-80
2021/12/07 07:49:00;;;;;;;;;;;1.80;99.90;;;;;;4992674;28;20023;-80
2021/12/07 07:51:25;;;;;;;;;;;1.90;99.90;;;;;;4992356;28;20342;-81
2021/12/07 07:53:51;;;;;;;;;;;1.90;99.90;;;;;;4992640;28;20020;-82
2021/12/07 07:56:17;;;;;;;;;;;1.90;99.90;;;;;;4991060;28;20455;-81
2021/12/07 07:58:43;;;;;;;;;;;1.80;99.90;;;;;;4990217;28;19933;-81
2021/12/07 08:01:08;;;;;;;;;;;1.90;99.90;;;;;;4990957;28;19984;-80
2021/12/07 08:03:35;;;;;;;;;;;1.90;99.90;;;;;;4990446;28;20352;-81
2021/12/07 08:06:01;;;;;;;;;;;1.90;99.90;;;;;;4992462;28;20027;-80
2021/12/07 08:08:26;;;;;;;;;;;1.80;99.90;;;;;;4991746;28;20040;-81
2021/12/07 08:10:52;;;;;;;;;;;1.90;99.90;;;;;;4990120;28;19933;-81
2021/12/07 08:13:18;;;;;;;;;;;1.80;99.90;;;;;;4992780;28;19929;-81
2021/12/07 08:15:44;;;;;;;;;;;1.80;99.90;;;;;;4988770;28;19938;-79
2021/12/07 08:18:11;;;;;;;;;;;1.80;99.90;;;;;;4990850;28;19929;-80
2021/12/07 08:20:55;;;;;;;;;;;1.80;99.90;;;;;;4990751;28;19964;-82
2021/12/07 08:23:21;;;;;;;;;;;1.80;99.90;;;;;;4988603;28;20281;-83
2021/12/07 08:25:48;;;;;;;;;;;1.80;99.90;;;;;;4989848;28;19941;-80
2021/12/07 08:28:14;;;;;;;;;;;1.80;99.90;;;;;;5004899;28;19921;-79
2021/12/07 08:30:41;;;;;;;;;;;2.20;99.90;;;;;;4989523;28;19929;-80
2021/12/07 08:33:07;;;;;;;;;;;1.80;99.90;;;;;;4990903;28;20421;-79
2021/12/07 08:35:33;;;;;;;;;;;1.80;99.90;;;;;;4982538;28;19968;-80
2021/12/07 08:37:59;;;;;;;;;;;1.80;99.90;;;;;;4991668;28;19926;-80
2021/12/07 08:40:25;;;;;;;;;;;1.80;99.90;;;;;;4991677;28;19925;-80
2021/12/07 08:42:51;;;;;;;;;;;1.80;99.90;;;;;;4991222;28;19996;-80
2021/12/07 08:45:18;;;;;;;;;;;1.80;99.90;;;;;;4992484;28;19933;-80
2021/12/07 08:47:44;;;;;;;;;;;1.80;99.90;;;;;;4991940;28;19953;-81
2021/12/07 08:50:13;;;;;;;;;;;2.60;99.90;;;;;;4992592;28;19930;-80
2021/12/07 08:52:39;;;;;;;;;;;1.90;99.90;;;;;;4991075;28;19958;-81
2021/12/07 09:00:29;;;;;;;;;;;1.90;99.90;;;;;;4988958;28;19952;-81
2021/12/07 09:02:55;;;;;;;;;;;1.90;99.90;;;;;;4990163;28;20313;-80
2021/12/07 09:05:20;;;;;;;;;;;1.90;99.90;;;;;;4986142;28;19937;-81
2021/12/07 09:07:49;;;;;;;;;;;2.00;99.90;;;;;;4991712;28;20618;-80
2021/12/07 09:10:15;;;;;;;;;;;1.90;99.90;;;;;;4991656;28;19930;-80
2021/12/07 09:12:41;;;;;;;;;;;2.00;99.90;;;;;;4989313;28;19934;-80
2021/12/07 09:15:07;;;;;;;;;;;2.10;99.90;;;;;;4989753;28;19929;-80
2021/12/07 09:17:35;;;;;;;;;;;2.10;99.90;;;;;;5008753;28;20012;-80
2021/12/07 09:20:04;;;;;;;;;;;2.20;99.90;;;;;;4990327;28;20008;-80
2021/12/07 09:32:42;;;;;;;;;;;3.00;99.90;;;;;;4983796;23;19984;-80
2021/12/07 09:35:08;;;;;;;;;;;3.40;99.90;;;;;;4986662;28;19985;-80
2021/12/07 09:37:34;;;;;;;;;;;3.70;99.90;;;;;;4985125;28;19941;-80
2021/12/07 09:40:04;;;;;;;;;;;4.10;99.90;;;;;;4983388;28;21328;-80
2021/12/07 09:42:30;;;;;;;;;;;4.20;99.90;;;;;;4977114;28;19991;-80
2021/12/07 09:44:55;;;;;;;;;;;4.50;99.90;;;;;;4988600;28;19937;-81
2021/12/07 09:47:21;;;;;;;;;;;4.80;99.90;;;;;;4971905;28;19925;-81
2021/12/07 09:49:46;;;;;;;;;;;4.90;99.90;;;;;;4979471;28;19964;-82
2021/12/07 09:52:12;;;;;;;;;;;4.90;99.90;;;;;;4980222;28;20427;-81
2021/12/07 09:54:37;;;;;;;;;;;5.10;99.90;;;;;;4972722;28;20041;-82
2021/12/07 09:57:04;;;;;;;;;;;5.30;99.90;;;;;;4972181;28;19935;-81
2021/12/07 09:59:30;;;;;;;;;;;5.50;99.90;;;;;;4975696;28;19934;-82
2021/12/07 10:01:56;;;;;;;;;;;5.60;99.90;;;;;;4972856;28;20005;-81
2021/12/07 10:04:27;;;;;;;;;;;6.10;99.90;;;;;;4977062;28;19934;-81
2021/12/07 10:06:56;;;;;;;;;;;7.20;99.90;;;;;;4986366;28;19925;-81
2021/12/07 10:09:21;;;;;;;;;;;8.40;99.90;;;;;;4979104;28;19983;-81
2021/12/07 10:11:52;;;;;;;;;;;9.40;99.90;;;;;;4983813;28;20312;-83
2021/12/07 10:14:17;;;;;;;;;;;10.10;99.90;;;;;;4979739;28;19929;-81
2021/12/07 10:19:29;;;;;;;;;;;11.10;99.90;;;;;;5155602;22;19937;-82
2021/12/07 10:21:59;;;;;;;;;;;11.20;99.90;;;;;;4990456;28;20315;-82
2021/12/07 10:54:25;;;;;;;;;;;11.80;97.30;;;;;;5735800;23;19933;-82
2021/12/07 10:56:50;;;;;;;;;;;11.30;99.90;;;;;;4988767;28;19925;-81
2021/12/07 10:59:16;;;;;;;;;;;11.20;97.30;;;;;;4988291;28;19926;-81
2021/12/07 11:01:44;;;;;;;;;;;11.10;97.40;;;;;;4988710;28;19980;-82
2021/12/07 11:04:29;;;;;;;;;;;12.00;99.90;;;;;;4989852;28;20055;-83
2021/12/07 11:07:07;;;;;;;;;;;11.50;99.90;;;;;;4989718;28;19972;-82
2021/12/07 11:09:37;;;;;;;;;;;12.40;99.90;;;;;;4974560;28;19980;-82
2021/12/07 11:12:09;;;;;;;;;;;13.00;81.90;;;;;;4986849;28;20024;-81
2021/12/07 11:17:00;;;;;;;;;;;13.30;97.70;;;;;;5863306;23;20361;-83
2021/12/07 11:24:38;;;;;;;;;;;10.70;99.90;;;;;;5032996;23;19926;-81
2021/12/07 11:30:17;;;;;;;;;;;9.20;99.90;;;;;;4988534;28;19930;-82
2021/12/07 11:32:47;;;;;;;;;;;8.70;99.90;;;;;;4927046;28;20009;-79
2021/12/07 11:35:18;;;;;;;;;;;8.10;99.90;;;;;;4954403;28;20087;-79
2021/12/07 11:37:45;;;;;;;;;;;7.70;99.90;;;;;;4954282;28;19930;-85
2021/12/07 11:40:11;;;;;;;;;;;7.40;99.90;;;;;;4952114;28;20029;-82
2021/12/07 11:42:41;;;;;;;;;;;7.10;99.90;;;;;;4951459;28;20046;-80
2021/12/07 11:45:09;;;;;;;;;;;6.80;99.90;;;;;;4949716;28;19937;-82
2021/12/07 11:47:38;;;;;;;;;;;6.70;99.90;;;;;;4951957;28;19936;-82
2021/12/07 11:50:15;;;;;;;;;;;6.60;99.90;;;;;;4951999;28;19936;-82
2021/12/07 11:52:41;;;;;;;;;;;6.50;99.90;;;;;;4950806;28;19926;-81
2021/12/07 11:55:09;;;;;;;;;;;6.40;99.90;;;;;;4954898;28;20176;-80
2021/12/07 11:57:35;;;;;;;;;;;6.30;99.90;;;;;;4957167;28;19930;-81
2021/12/07 12:00:01;;;;;;;;;;;6.30;99.90;;;;;;4957318;28;19932;-81
2021/12/07 12:02:27;;;;;;;;;;;6.20;99.90;;;;;;4953099;28;20437;-80
2021/12/07 12:04:52;;;;;;;;;;;6.20;99.90;;;;;;4952937;28;19922;-80
2021/12/07 12:07:21;;;;;;;;;;;6.30;99.90;;;;;;4953883;28;19926;-80
2021/12/07 12:09:50;;;;;;;;;;;6.20;99.90;;;;;;4953266;28;19989;-82
2021/12/07 12:15:31;;;;;;;;;;;5.40;99.90;;;;;;4952958;28;19926;-80
2021/12/07 12:18:13;;;;;;;;;;;6.00;99.90;;;;;;4953092;28;20044;-81
2021/12/07 12:20:56;;;;;;;;;;;5.20;99.90;;;;;;4954284;28;20573;-81
2021/12/07 12:23:47;;;;;;;;;;;6.00;99.90;;;;;;4953060;28;19965;-80
2021/12/07 12:26:19;;;;;;;;;;;6.10;99.90;;;;;;4951438;28;19946;-81
2021/12/07 12:28:49;;;;;;;;;;;6.00;99.90;;;;;;4966803;28;20025;-80
2021/12/07 12:31:16;;;;;;;;;;;6.10;99.90;;;;;;4951450;28;19941;-81
2021/12/07 12:33:52;;;;;;;;;;;6.00;99.90;;;;;;4948439;28;20085;-81
2021/12/07 12:36:19;;;;;;;;;;;6.00;99.90;;;;;;4950615;28;20545;-80
2021/12/07 12:38:48;;;;;;;;;;;6.00;99.90;;;;;;5444843;23;19933;-80
2021/12/07 12:41:14;;;;;;;;;;;6.00;99.90;;;;;;4990477;28;19929;-83
2021/12/07 12:43:42;;;;;;;;;;;6.00;99.90;;;;;;4990946;28;19937;-81
2021/12/07 12:46:12;;;;;;;;;;;6.00;99.90;;;;;;4991702;28;19934;-80
2021/12/07 12:48:41;;;;;;;;;;;5.90;99.90;;;;;;4991586;28;19926;-82
2021/12/07 12:51:09;;;;;;;;;;;5.90;99.90;;;;;;4990248;28;19926;-81
2021/12/07 12:53:34;;;;;;;;;;;5.90;99.90;;;;;;4990998;28;19925;-81
2021/12/07 12:56:01;;;;;;;;;;;5.90;99.90;;;;;;4990373;28;19948;-81
2021/12/07 12:58:35;;;;;;;;;;;5.90;99.90;;;;;;4990591;28;19936;-81
2021/12/07 13:01:18;;;;;;;;;;;5.90;99.90;;;;;;4984230;28;19926;-82
2021/12/07 13:03:52;;;;;;;;;;;5.90;99.90;;;;;;4991242;28;19940;-81
2021/12/07 13:06:24;;;;;;;;;;;5.80;99.90;;;;;;4990855;28;19922;-81
2021/12/07 13:09:00;;;;;;;;;;;5.80;99.90;;;;;;4991568;28;20377;-82
2021/12/07 13:11:49;;;;;;;;;;;5.80;99.90;;;;;;4990447;28;19927;-82
2021/12/07 13:14:24;;;;;;;;;;;5.80;99.90;;;;;;4986608;28;19926;-80
2021/12/07 13:16:51;;;;;;;;;;;4.80;99.90;;;;;;4991656;28;19921;-79
2021/12/07 13:19:17;;;;;;;;;;;6.70;99.90;;;;;;5002142;28;19997;-80
2021/12/07 13:21:43;;;;;;;;;;;7.50;99.90;;;;;;4998260;28;20404;-81
2021/12/07 13:24:31;;;;;;;;;;;5.70;99.90;;;;;;5003740;28;19936;-80
2021/12/07 13:27:24;;;;;;;;;;;5.70;99.90;;;;;;4990239;28;19926;-83
2021/12/07 13:33:37;;;;;;;;;;;4.30;99.90;;;;;;4985017;28;19925;-81
2021/12/07 13:36:28;;;;;;;;;;;5.70;99.90;;;;;;4989507;28;20408;-82
2021/12/07 13:38:57;;;;;;;;;;;5.70;99.90;;;;;;4990797;28;19979;-81
2021/12/07 13:41:46;;;;;;;;;;;8.40;99.90;;;;;;4988006;28;19969;-80
2021/12/07 13:44:11;;;;;;;;;;;5.80;99.90;;;;;;4990006;28;20404;-81
2021/12/07 13:46:40;;;;;;;;;;;5.60;99.90;;;;;;4988555;28;19925;-80
2021/12/07 13:59:17;;;;;;;;;;;5.50;99.90;;;;;;5007887;28;19921;-81
2021/12/07 14:01:51;;;;;;;;;;;4.40;99.90;;;;;;4984148;28;19967;-82
2021/12/07 14:04:32;;;;;;;;;;;5.50;99.90;;;;;;4987773;28;20456;-82
2021/12/07 14:06:59;;;;;;;;;;;5.20;99.90;;;;;;4989272;28;19980;-83
2021/12/07 14:10:01;;;;;;;;;;;5.40;99.90;;;;;;4985415;28;19920;-81
2021/12/07 14:12:27;;;;;;;;;;;5.40;99.90;;;;;;4988929;28;19929;-80
2021/12/07 14:14:52;;;;;;;;;;;5.30;99.90;;;;;;4988911;28;19931;-81
2021/12/07 14:17:18;;;;;;;;;;;5.30;99.90;;;;;;4990656;28;19925;-81
2021/12/07 14:19:44;;;;;;;;;;;5.20;99.90;;;;;;4994271;28;20023;-81
2021/12/07 14:22:21;;;;;;;;;;;5.20;99.90;;;;;;4994802;28;19933;-81
2021/12/07 14:28:09;;;;;;;;;;;5.10;99.90;;;;;;5009149;28;20022;-80
2021/12/07 14:30:44;;;;;;;;;;;5.00;99.90;;;;;;4983401;28;20378;-80
2021/12/07 14:33:10;;;;;;;;;;;5.00;99.90;;;;;;4990813;28;20036;-81
2021/12/07 14:35:38;;;;;;;;;;;4.90;99.90;;;;;;4990274;28;19972;-81
2021/12/07 14:38:40;;;;;;;;;;;4.90;99.90;;;;;;4984557;28;19933;-81
2021/12/07 14:41:10;;;;;;;;;;;4.80;99.90;;;;;;4976346;28;19977;-84
2021/12/07 14:43:40;;;;;;;;;;;5.60;99.90;;;;;;4973000;28;19941;-81
2021/12/07 14:46:28;;;;;;;;;;;3.20;99.90;;;;;;4981063;28;20343;-80
2021/12/07 14:49:19;;;;;;;;;;;4.10;99.90;;;;;;4974527;28;20287;-82
2021/12/07 14:51:45;;;;;;;;;;;5.30;99.90;;;;;;4983865;28;19995;-83
2021/12/07 14:54:11;;;;;;;;;;;4.60;99.90;;;;;;4984563;28;19973;-82
2021/12/07 14:56:37;;;;;;;;;;;4.40;99.90;;;;;;4981092;28;19926;-82
2021/12/07 14:59:14;;;;;;;;;;;4.30;99.90;;;;;;4984059;28;19940;-85
2021/12/07 15:01:41;;;;;;;;;;;4.40;99.90;;;;;;4982901;28;19952;-82
2021/12/07 15:04:24;;;;;;;;;;;4.40;99.90;;;;;;4988278;28;19947;-82
2021/12/07 15:07:00;;;;;;;;;;;4.30;99.90;;;;;;4994054;28;20386;-79
2021/12/07 15:09:46;;;;;;;;;;;5.20;99.90;;;;;;4990717;28;19933;-82
2021/12/07 15:12:19;;;;;;;;;;;4.70;99.90;;;;;;5003377;28;19936;-82
2021/12/07 15:14:55;;;;;;;;;;;3.20;99.90;;;;;;4995652;28;20733;-83
2021/12/07 15:17:39;;;;;;;;;;;4.10;99.90;;;;;;4992455;28;19966;-83
2021/12/07 15:20:06;;;;;;;;;;;3.90;99.90;;;;;;4989858;28;20033;-82
2021/12/07 15:22:44;;;;;;;;;;;4.00;99.90;;;;;;4988940;28;19925;-82
2021/12/07 15:25:14;;;;;;;;;;;4.00;99.90;;;;;;4987835;28;20385;-81
2021/12/07 15:27:48;;;;;;;;;;;4.20;99.90;;;;;;4987187;28;19930;-82
2021/12/07 15:33:42;;;;;;;;;;;2.90;99.90;;;;;;5007265;28;19960;-83
2021/12/07 15:36:29;;;;;;;;;;;3.80;99.90;;;;;;4991106;28;19929;-81
2021/12/07 15:39:09;;;;;;;;;;;4.50;99.90;;;;;;4984752;28;20067;-81
2021/12/07 15:41:35;;;;;;;;;;;3.70;99.90;;;;;;4988945;28;19933;-81
2021/12/07 15:44:02;;;;;;;;;;;3.70;99.90;;;;;;5000613;28;19929;-81
2021/12/07 15:46:34;;;;;;;;;;;3.70;99.90;;;;;;4988096;28;19937;-80
2021/12/07 15:48:59;;;;;;;;;;;3.60;99.90;;;;;;4995304;23;19934;-80
2021/12/07 15:51:25;;;;;;;;;;;4.40;99.90;;;;;;4994345;28;19933;-79
2021/12/07 15:53:55;;;;;;;;;;;3.60;99.90;;;;;;4987904;28;19930;-79
2021/12/07 15:56:21;;;;;;;;;;;2.40;99.90;;;;;;4990240;28;19982;-80
2021/12/07 16:06:35;;;;;;;;;;;3.40;99.90;;;;;;5599365;22;19934;-80
2021/12/07 16:09:17;;;;;;;;;;;3.40;99.90;;;;;;4989841;28;19925;-81
2021/12/07 16:11:43;;;;;;;;;;;3.40;99.90;;;;;;4991531;28;19926;-81
2021/12/07 16:14:09;;;;;;;;;;;3.40;99.90;;;;;;4983612;28;19931;-80
2021/12/07 16:19:37;;;;;;;;;;;3.30;99.90;;;;;;5002772;28;19935;-82
2021/12/07 16:22:12;;;;;;;;;;;3.30;99.90;;;;;;4983574;28;19926;-80
2021/12/07 16:24:44;;;;;;;;;;;3.30;99.90;;;;;;4983933;28;19930;-81
2021/12/07 16:27:28;;;;;;;;;;;3.20;99.90;;;;;;4983707;28;19998;-80
2021/12/07 16:29:57;;;;;;;;;;;3.20;99.90;;;;;;5001590;28;19926;-80
2021/12/07 16:32:34;;;;;;;;;;;3.20;99.90;;;;;;4986516;28;21045;-79
2021/12/07 16:35:00;;;;;;;;;;;3.20;99.90;;;;;;4984224;28;19933;-81
2021/12/07 16:37:26;;;;;;;;;;;4.30;99.90;;;;;;4983937;28;19944;-79
2021/12/07 16:40:00;;;;;;;;;;;4.00;99.90;;;;;;4985475;28;19930;-80
2021/12/07 16:42:25;;;;;;;;;;;3.10;99.90;;;;;;4984156;28;20060;-79
2021/12/07 16:45:10;;;;;;;;;;;5.60;99.90;;;;;;4986198;28;20092;-80
2021/12/07 16:47:48;;;;;;;;;;;3.10;99.90;;;;;;4985350;28;20577;-79
2021/12/07 16:50:15;;;;;;;;;;;3.00;99.90;;;;;;4982916;28;21316;-80
2021/12/07 16:52:53;;;;;;;;;;;2.70;99.90;;;;;;4982343;28;20057;-82
2021/12/07 16:55:46;;;;;;;;;;;3.10;99.90;;;;;;4985478;28;19930;-83
2021/12/07 16:58:15;;;;;;;;;;;3.00;99.90;;;;;;4949730;28;20020;-87
2021/12/07 17:00:58;;;;;;;;;;;3.00;99.90;;;;;;4981166;28;20023;-84
2021/12/07 17:03:24;;;;;;;;;;;3.10;99.90;;;;;;5003588;28;19925;-83
2021/12/07 17:05:50;;;;;;;;;;;3.10;99.90;;;;;;4997102;28;19929;-84
2021/12/07 17:08:17;;;;;;;;;;;3.20;99.90;;;;;;4989416;28;19980;-84
2021/12/07 17:10:54;;;;;;;;;;;3.30;99.90;;;;;;4987333;28;20061;-85
2021/12/07 17:13:20;;;;;;;;;;;3.00;99.90;;;;;;4987763;28;20383;-82
2021/12/07 17:15:46;;;;;;;;;;;3.00;99.90;;;;;;4990321;28;20385;-85
2021/12/07 17:18:25;;;;;;;;;;;3.00;99.90;;;;;;4988945;28;19972;-84
2021/12/07 17:21:03;;;;;;;;;;;1.60;99.90;;;;;;4983185;28;19933;-85
2021/12/07 17:23:38;;;;;;;;;;;4.10;99.90;;;;;;4984892;28;19933;-85
2021/12/07 17:26:13;;;;;;;;;;;2.70;99.90;;;;;;4984027;28;19933;-85
2021/12/07 17:28:45;;;;;;;;;;;2.30;99.90;;;;;;4985982;28;19925;-85
2021/12/07 17:31:11;;;;;;;;;;;3.00;99.90;;;;;;4984321;28;19929;-87
2021/12/07 17:33:47;;;;;;;;;;;3.00;99.90;;;;;;4985992;28;20262;-84
2021/12/07 17:36:28;;;;;;;;;;;2.60;99.90;;;;;;4984098;28;19972;-85
2021/12/07 17:38:55;;;;;;;;;;;3.00;99.90;;;;;;4985016;28;19929;-84
2021/12/07 17:41:37;;;;;;;;;;;2.20;99.90;;;;;;4981602;28;19934;-84
2021/12/07 17:44:15;;;;;;;;;;;3.00;99.90;;;;;;4982621;28;19996;-86
2021/12/07 17:46:47;;;;;;;;;;;3.00;99.90;;;;;;4984453;28;19933;-86
2021/12/07 17:49:13;;;;;;;;;;;3.00;99.90;;;;;;4985462;28;19932;-85
2021/12/07 17:51:39;;;;;;;;;;;3.50;99.90;;;;;;4983611;28;19929;-86
2021/12/07 17:54:05;;;;;;;;;;;3.00;99.90;;;;;;4984551;28;20020;-85
2021/12/07 17:56:31;;;;;;;;;;;3.10;99.90;;;;;;4990922;28;20020;-84
2021/12/07 17:58:57;;;;;;;;;;;3.00;99.90;;;;;;4990424;28;19933;-88
2021/12/07 18:01:22;;;;;;;;;;;3.10;99.90;;;;;;4989831;28;19925;-85
2021/12/07 18:03:48;;;;;;;;;;;2.70;99.90;;;;;;4991751;28;19930;-83
2021/12/07 18:06:39;;;;;;;;;;;3.00;99.90;;;;;;4990014;28;20075;-85
2021/12/07 18:09:05;;;;;;;;;;;1.20;99.90;;;;;;4990973;28;19936;-84
2021/12/07 18:11:46;;;;;;;;;;;3.20;99.90;;;;;;4982302;28;19921;-85
2021/12/07 18:14:13;;;;;;;;;;;1.80;99.90;;;;;;4995646;23;19933;-85
2021/12/07 18:16:49;;;;;;;;;;;;;;;;;;;;;
2021/12/07 18:19:16;;;;;;;;;;;2.90;99.90;;;;;;4990675;28;19975;-84
2021/12/07 18:21:50;;;;;;;;;;;2.90;99.90;;;;;;4984994;28;20330;-84
2021/12/07 18:24:25;;;;;;;;;;;2.90;99.90;;;;;;4990261;28;19934;-84
2021/12/07 18:26:50;;;;;;;;;;;2.90;99.90;;;;;;4988748;28;19925;-83
2021/12/07 18:29:19;;;;;;;;;;;2.90;99.90;;;;;;4990576;28;20012;-85
2021/12/07 18:31:44;;;;;;;;;;;1.50;99.90;;;;;;4990242;28;19934;-84
2021/12/07 18:34:25;;;;;;;;;;;2.90;99.90;;;;;;4989160;28;20020;-85
2021/12/07 18:36:51;;;;;;;;;;;2.20;99.90;;;;;;4991518;28;19929;-84
2021/12/07 18:39:29;;;;;;;;;;;2.90;99.90;;;;;;4984681;28;20029;-86
2021/12/07 18:41:54;;;;;;;;;;;2.90;99.90;;;;;;4992634;28;19937;-86